Time,TemperatureF,DewpointF,PressureIn,WindDirection,WindDirectionDegrees,WindSpeedMPH,WindSpeedGustMPH,Humidity,HourlyPrecipIn,Conditions,Clouds,dailyrainin,SoftwareType,DateUTC
2013-03-04 00:01:00,46.0,46.0,30.05,North,0,0.0,-999.0,100,-99.99,,,-99.99,,2013-03-04 08:01:00,
2013-03-04 00:11:00,46.0,46.0,30.05,SSE,160,6.0,-999.0,100,-99.99,,,-99.99,,2013-03-04 08:11:00,
2013-03-04 00:21:00,46.0,46.0,30.05,South,170,3.0,-999.0,100,-99.99,,,-99.99,,2013-03-04 08:21:00,
2013-03-04 00:31:00,46.0,46.0,30.05,North,0,0.0,-999.0,100,-99.99,,,-99.99,,2013-03-04 08:31:00,
2013-03-04 00:41:00,46.0,46.0,30.05,North,0,0.0,-999.0,100,-99.99,,,-99.99,,2013-03-04 08:41:00,
2013-03-04 00:52:00,46.0,46.0,30.05,South,180,2.0,-999.0,100,-99.99,,,-99.99,,2013-03-04 08:52:00,
2013-03-04 01:01:00,46.0,46.0,30.05,South,180,2.0,-999.0,100,-99.99,,,-99.99,,2013-03-04 09:01:00,
2013-03-04 01:11:00,46.0,46.0,30.06,North,0,0.0,-999.0,100,-99.99,,,-99.99,,2013-03-04 09:11:00,
2013-03-04 01:21:00,46.0,46.0,30.06,North,0,0.0,-999.0,100,-99.99,,,-99.99,,2013-03-04 09:21:00,
2013-03-04 01:31:00,46.0,46.0,30.06,North,0,0.0,-999.0,100,-99.99,,,-99.99,,2013-03-04 09:31:00,
2013-03-04 01:41:00,46.0,46.0,30.06,North,0,0.0,-999.0,100,-99.99,,,-99.99,,2013-03-04 09:41:00,
2013-03-04 01:51:00,46.0,46.0,30.07,North,0,0.0,-999.0,100,-99.99,,,-99.99,,2013-03-04 09:51:00,
2013-03-04 02:01:00,46.0,46.0,30.07,North,0,0.0,-999.0,100,-99.99,,,-99.99,,2013-03-04 10:01:00,
2013-03-04 02:11:00,45.0,45.0,30.07,North,0,0.0,-999.0,100,-99.99,,,-99.99,,2013-03-04 10:11:00,
2013-03-04 02:21:00,43.0,43.0,30.07,North,0,0.0,-999.0,100,-99.99,,,-99.99,,2013-03-04 10:21:00,
2013-03-04 02:31:00,43.0,43.0,30.07,North,0,0.0,-999.0,100,-99.99,,,-99.99,,2013-03-04 10:31:00,
2013-03-04 02:41:00,43.0,43.0,30.07,North,0,0.0,-999.0,100,-99.99,,,-99.99,,2013-03-04 10:41:00,
2013-03-04 02:52:00,43.0,43.0,30.07,North,0,0.0,-999.0,100,-99.99,,,-99.99,,2013-03-04 10:52:00,
2013-03-04 03:01:00,43.0,43.0,30.07,North,0,0.0,-999.0,100,-99.99,,,-99.99,,2013-03-04 11:01:00,
2013-03-04 03:11:00,45.0,45.0,30.07,North,0,0.0,-999.0,100,-99.99,,,-99.99,,2013-03-04 11:11:00,
2013-03-04 03:21:00,45.0,45.0,30.07,North,0,0.0,-999.0,100,-99.99,,,-99.99,,2013-03-04 11:21:00,
2013-03-04 03:31:00,43.0,43.0,30.07,North,0,0.0,-999.0,100,-99.99,,,-99.99,,2013-03-04 11:31:00,
2013-03-04 03:41:00,43.0,43.0,30.07,North,0,0.0,-999.0,100,-99.99,,,-99.99,,2013-03-04 11:41:00,
2013-03-04 03:52:00,43.0,43.0,30.07,North,0,0.0,-999.0,100,-99.99,,,-99.99,,2013-03-04 11:52:00,
2013-03-04 04:01:00,43.0,43.0,30.07,North,0,0.0,-999.0,100,-99.99,,,-99.99,,2013-03-04 12:01:00,
2013-03-04 04:11:00,43.0,43.0,30.06,North,0,0.0,-999.0,100,-99.99,,,-99.99,,2013-03-04 12:11:00,
2013-03-04 04:21:00,41.0,41.0,30.07,North,0,0.0,-999.0,100,-99.99,,,-99.99,,2013-03-04 12:21:00,
2013-03-04 04:32:00,39.0,39.0,30.07,North,0,0.0,-999.0,100,-99.99,,,-99.99,,2013-03-04 12:32:00,
2013-03-04 04:42:00,39.0,39.0,30.07,North,0,0.0,-999.0,100,-99.99,,,-99.99,,2013-03-04 12:42:00,
2013-03-04 04:52:00,39.0,39.0,30.07,North,0,0.0,-999.0,100,-99.99,,,-99.99,,2013-03-04 12:52:00,
2013-03-04 05:01:00,39.0,39.0,30.07,North,0,0.0,-999.0,100,-99.99,,,-99.99,,2013-03-04 13:01:00,
2013-03-04 05:11:00,39.0,39.0,30.07,North,0,0.0,-999.0,100,-99.99,,,-99.99,,2013-03-04 13:11:00,
2013-03-04 05:21:00,39.0,39.0,30.08,North,0,0.0,-999.0,100,-99.99,,,-99.99,,2013-03-04 13:21:00,
2013-03-04 05:31:00,39.0,39.0,30.09,North,0,0.0,-999.0,100,-99.99,,,-99.99,,2013-03-04 13:31:00,
2013-03-04 05:41:00,39.0,39.0,30.09,North,0,0.0,-999.0,100,-99.99,,,-99.99,,2013-03-04 13:41:00,
2013-03-04 05:51:00,39.0,39.0,30.09,North,0,0.0,-999.0,100,-99.99,,,-99.99,,2013-03-04 13:51:00,
2013-03-04 06:01:00,39.0,39.0,30.09,North,0,0.0,-999.0,100,-99.99,,,-99.99,,2013-03-04 14:01:00,
2013-03-04 06:11:00,39.0,39.0,30.09,North,0,0.0,-999.0,100,-99.99,,,-99.99,,2013-03-04 14:11:00,
2013-03-04 06:21:00,39.0,39.0,30.09,North,0,0.0,-999.0,100,-99.99,,,-99.99,,2013-03-04 14:21:00,
2013-03-04 06:31:00,37.0,37.0,30.10,North,0,0.0,-999.0,100,-99.99,,,-99.99,,2013-03-04 14:31:00,
2013-03-04 06:41:00,37.0,37.0,30.10,North,0,0.0,-999.0,100,-99.99,,,-99.99,,2013-03-04 14:41:00,
2013-03-04 06:52:00,39.0,39.0,30.10,North,0,0.0,-999.0,100,-99.99,,,-99.99,,2013-03-04 14:52:00,
2013-03-04 07:01:00,39.0,39.0,30.10,North,0,0.0,-999.0,100,-99.99,,,-99.99,,2013-03-04 15:01:00,
2013-03-04 07:11:00,39.0,39.0,30.10,North,0,0.0,-999.0,100,-99.99,,,-99.99,,2013-03-04 15:11:00,
2013-03-04 07:21:00,43.0,43.0,30.10,North,0,0.0,-999.0,100,-99.99,,,-99.99,,2013-03-04 15:21:00,
2013-03-04 07:31:00,43.0,43.0,30.10,North,0,0.0,-999.0,100,-99.99,,,-99.99,,2013-03-04 15:31:00,
2013-03-04 07:41:00,43.0,43.0,30.11,North,0,0.0,-999.0,100,-99.99,,,-99.99,,2013-03-04 15:41:00,
2013-03-04 07:51:00,45.0,45.0,30.11,NW,310,5.0,-999.0,100,-99.99,,,-99.99,,2013-03-04 15:51:00,
2013-03-04 08:02:00,45.0,45.0,30.11,NW,310,5.0,-999.0,100,-99.99,,,-99.99,,2013-03-04 16:02:00,
2013-03-04 08:11:00,46.0,46.0,30.11,WNW,290,3.0,-999.0,100,-99.99,,,-99.99,,2013-03-04 16:11:00,
2013-03-04 08:21:00,46.0,46.0,30.12,West,280,2.0,-999.0,100,-99.99,,,-99.99,,2013-03-04 16:21:00,
2013-03-04 08:31:00,46.0,46.0,30.12,North,0,0.0,-999.0,100,-99.99,,,-99.99,,2013-03-04 16:31:00,
2013-03-04 08:41:00,46.0,46.0,30.13,NW,320,3.0,-999.0,100,-99.99,,,-99.99,,2013-03-04 16:41:00,
2013-03-04 08:52:00,48.0,48.0,30.13,NW,320,6.0,-999.0,100,-99.99,,,-99.99,,2013-03-04 16:52:00,
2013-03-04 09:01:00,48.0,48.0,30.13,WNW,300,6.0,-999.0,100,-99.99,,,-99.99,,2013-03-04 17:01:00,
2013-03-04 09:11:00,48.0,48.0,30.13,North,350,3.0,-999.0,100,-99.99,,,-99.99,,2013-03-04 17:11:00,
2013-03-04 09:21:00,48.0,48.0,30.13,North,0,0.0,-999.0,100,-99.99,,,-99.99,,2013-03-04 17:21:00,
2013-03-04 09:31:00,50.0,50.0,30.14,NNW,340,5.0,-999.0,100,-99.99,,,-99.99,,2013-03-04 17:31:00,
2013-03-04 09:42:00,50.0,50.0,30.14,North,0,6.0,-999.0,100,-99.99,,,-99.99,,2013-03-04 17:42:00,
2013-03-04 09:52:00,50.0,50.0,30.14,North,350,3.0,-999.0,100,-99.99,,,-99.99,,2013-03-04 17:52:00,
2013-03-04 10:01:00,50.0,50.0,30.14,North,350,3.0,-999.0,100,-99.99,,,-99.99,,2013-03-04 18:01:00,
2013-03-04 10:11:00,48.0,48.0,30.14,North,0,0.0,-999.0,100,-99.99,,,-99.99,,2013-03-04 18:11:00,
2013-03-04 10:21:00,52.0,52.0,30.14,North,0,0.0,-999.0,100,-99.99,,,-99.99,,2013-03-04 18:21:00,
2013-03-04 10:31:00,52.0,52.0,30.14,North,0,0.0,-999.0,100,-99.99,,,-99.99,,2013-03-04 18:31:00,
2013-03-04 10:41:00,52.0,52.0,30.14,North,0,0.0,-999.0,100,-99.99,,,-99.99,,2013-03-04 18:41:00,
2013-03-04 10:51:00,54.0,52.0,30.13,NNE,20,3.0,-999.0,93,-99.99,,,-99.99,,2013-03-04 18:51:00,
2013-03-04 11:01:00,54.0,52.0,30.13,NNE,20,3.0,-999.0,93,-99.99,,,-99.99,,2013-03-04 19:01:00,
2013-03-04 11:11:00,55.0,52.0,30.13,North,0,0.0,-999.0,87,-99.99,,,-99.99,,2013-03-04 19:11:00,
2013-03-04 11:21:00,55.0,52.0,30.14,North,0,0.0,-999.0,87,-99.99,,,-99.99,,2013-03-04 19:21:00,
2013-03-04 11:31:00,57.0,52.0,30.13,North,0,0.0,-999.0,82,-99.99,,,-99.99,,2013-03-04 19:31:00,
2013-03-04 11:41:00,57.0,52.0,30.12,North,0,0.0,-999.0,82,-99.99,,,-99.99,,2013-03-04 19:41:00,
2013-03-04 11:51:00,61.0,52.0,30.12,North,0,0.0,-999.0,72,-99.99,,,-99.99,,2013-03-04 19:51:00,
2013-03-04 12:01:00,61.0,52.0,30.12,North,0,0.0,-999.0,72,-99.99,,,-99.99,,2013-03-04 20:01:00,
2013-03-04 12:11:00,61.0,52.0,30.12,North,0,0.0,-999.0,72,-99.99,,,-99.99,,2013-03-04 20:11:00,
2013-03-04 12:21:00,61.0,50.0,30.11,North,0,0.0,-999.0,67,-99.99,,,-99.99,,2013-03-04 20:21:00,
2013-03-04 12:31:00,61.0,50.0,30.11,North,0,0.0,-999.0,67,-99.99,,,-99.99,,2013-03-04 20:31:00,
2013-03-04 12:41:00,63.0,48.0,30.11,North,0,0.0,-999.0,59,-99.99,,,-99.99,,2013-03-04 20:41:00,
2013-03-04 12:52:00,63.0,50.0,30.10,North,0,0.0,-999.0,63,-99.99,,,-99.99,,2013-03-04 20:52:00,
2013-03-04 13:01:00,63.0,50.0,30.10,North,0,0.0,-999.0,63,-99.99,,,-99.99,,2013-03-04 21:01:00,
2013-03-04 13:11:00,64.0,52.0,30.09,North,0,0.0,-999.0,63,-99.99,,,-99.99,,2013-03-04 21:11:00,
2013-03-04 13:21:00,64.0,52.0,30.08,SW,220,5.0,-999.0,63,-99.99,,,-99.99,,2013-03-04 21:21:00,
2013-03-04 13:31:00,64.0,52.0,30.07,East,100,6.0,-999.0,63,-99.99,,,-99.99,,2013-03-04 21:31:00,
2013-03-04 13:41:00,64.0,52.0,30.06,ESE,120,7.0,-999.0,63,-99.99,,,-99.99,,2013-03-04 21:41:00,
2013-03-04 13:52:00,64.0,52.0,30.05,SE,140,7.0,-999.0,63,-99.99,,,-99.99,,2013-03-04 21:52:00,
2013-03-04 14:01:00,64.0,52.0,30.05,SE,140,7.0,-999.0,63,-99.99,,,-99.99,,2013-03-04 22:01:00,
2013-03-04 14:11:00,64.0,54.0,30.05,SSE,160,7.0,-999.0,67,-99.99,,,-99.99,,2013-03-04 22:11:00,
2013-03-04 14:21:00,66.0,54.0,30.05,SSE,160,7.0,-999.0,63,-99.99,,,-99.99,,2013-03-04 22:21:00,
2013-03-04 14:31:00,64.0,54.0,30.05,North,0,0.0,-999.0,67,-99.99,,,-99.99,,2013-03-04 22:31:00,
2013-03-04 14:42:00,66.0,54.0,30.05,SSE,150,7.0,-999.0,63,-99.99,,,-99.99,,2013-03-04 22:42:00,
2013-03-04 14:51:00,66.0,54.0,30.05,North,0,0.0,-999.0,63,-99.99,,,-99.99,,2013-03-04 22:51:00,
2013-03-04 15:01:00,66.0,54.0,30.05,North,0,0.0,-999.0,63,-99.99,,,-99.99,,2013-03-04 23:01:00,
2013-03-04 15:11:00,66.0,54.0,30.05,SSE,160,8.0,-999.0,63,-99.99,,,-99.99,,2013-03-04 23:11:00,
2013-03-04 15:21:00,66.0,54.0,30.05,SSE,150,8.0,-999.0,63,-99.99,,,-99.99,,2013-03-04 23:21:00,
2013-03-04 15:31:00,66.0,54.0,30.04,SSE,150,8.0,-999.0,63,-99.99,,,-99.99,,2013-03-04 23:31:00,
2013-03-04 15:41:00,66.0,52.0,30.04,SSE,160,6.0,-999.0,59,-99.99,,,-99.99,,2013-03-04 23:41:00,
2013-03-04 15:52:00,66.0,54.0,30.04,SE,140,6.0,-999.0,63,-99.99,,,-99.99,,2013-03-04 23:52:00,
2013-03-04 16:01:00,66.0,54.0,30.04,SE,140,6.0,-999.0,63,-99.99,,,-99.99,,2013-03-05 00:01:00,
2013-03-04 16:11:00,66.0,52.0,30.03,SSE,160,3.0,-999.0,59,-99.99,,,-99.99,,2013-03-05 00:11:00,
2013-03-04 16:21:00,66.0,52.0,30.03,South,180,7.0,-999.0,59,-99.99,,,-99.99,,2013-03-05 00:21:00,
2013-03-04 16:32:00,66.0,50.0,30.03,SSE,150,7.0,-999.0,55,-99.99,,,-99.99,,2013-03-05 00:32:00,
2013-03-04 16:41:00,66.0,52.0,30.03,SSE,150,5.0,-999.0,59,-99.99,,,-99.99,,2013-03-05 00:41:00,
2013-03-04 16:51:00,66.0,52.0,30.03,South,170,6.0,-999.0,59,-99.99,,,-99.99,,2013-03-05 00:51:00,
2013-03-04 17:01:00,66.0,52.0,30.03,South,170,6.0,-999.0,59,-99.99,,,-99.99,,2013-03-05 01:01:00,
2013-03-04 17:11:00,64.0,52.0,30.03,SSE,150,7.0,-999.0,63,-99.99,,,-99.99,,2013-03-05 01:11:00,
2013-03-04 17:21:00,64.0,54.0,30.03,SE,140,5.0,-999.0,67,-99.99,,,-99.99,,2013-03-05 01:21:00,
2013-03-04 17:32:00,64.0,54.0,30.03,North,0,0.0,-999.0,67,-99.99,,,-99.99,,2013-03-05 01:32:00,
2013-03-04 17:41:00,63.0,54.0,30.03,SSE,150,5.0,-999.0,72,-99.99,,,-99.99,,2013-03-05 01:41:00,
2013-03-04 17:51:00,63.0,54.0,30.03,North,0,0.0,-999.0,72,-99.99,,,-99.99,,2013-03-05 01:51:00,
2013-03-04 18:01:00,63.0,54.0,30.03,North,0,0.0,-999.0,72,-99.99,,,-99.99,,2013-03-05 02:01:00,
2013-03-04 18:11:00,61.0,54.0,30.02,North,0,0.0,-999.0,77,-99.99,,,-99.99,,2013-03-05 02:11:00,
2013-03-04 18:21:00,59.0,54.0,30.02,SSW,210,5.0,-999.0,82,-99.99,,,-99.99,,2013-03-05 02:21:00,
2013-03-04 18:31:00,59.0,54.0,30.02,North,0,0.0,-999.0,82,-99.99,,,-99.99,,2013-03-05 02:31:00,
2013-03-04 18:41:00,59.0,52.0,30.02,SSW,210,6.0,-999.0,76,-99.99,,,-99.99,,2013-03-05 02:41:00,
2013-03-04 18:52:00,57.0,52.0,30.03,North,0,0.0,-999.0,82,-99.99,,,-99.99,,2013-03-05 02:52:00,
2013-03-04 19:01:00,57.0,52.0,30.03,North,0,0.0,-999.0,82,-99.99,,,-99.99,,2013-03-05 03:01:00,
2013-03-04 19:11:00,55.0,52.0,30.02,North,0,0.0,-999.0,87,-99.99,,,-99.99,,2013-03-05 03:11:00,
2013-03-04 19:21:00,55.0,52.0,30.03,North,0,0.0,-999.0,87,-99.99,,,-99.99,,2013-03-05 03:21:00,
2013-03-04 19:31:00,55.0,52.0,30.03,SW,220,6.0,-999.0,87,-99.99,,,-99.99,,2013-03-05 03:31:00,
2013-03-04 19:41:00,55.0,52.0,30.02,SSW,210,6.0,-999.0,87,-99.99,,,-99.99,,2013-03-05 03:41:00,
2013-03-04 19:51:00,54.0,50.0,30.03,SE,140,5.0,-999.0,87,-99.99,,,-99.99,,2013-03-05 03:51:00,
2013-03-04 20:01:00,54.0,50.0,30.03,SE,140,5.0,-999.0,87,-99.99,,,-99.99,,2013-03-05 04:01:00,
2013-03-04 20:11:00,54.0,48.0,30.03,North,0,0.0,-999.0,81,-99.99,,,-99.99,,2013-03-05 04:11:00,
2013-03-04 20:21:00,52.0,48.0,30.03,North,0,0.0,-999.0,87,-99.99,,,-99.99,,2013-03-05 04:21:00,
2013-03-04 20:31:00,50.0,48.0,30.03,North,0,0.0,-999.0,93,-99.99,,,-99.99,,2013-03-05 04:31:00,
2013-03-04 20:41:00,50.0,48.0,30.03,North,0,0.0,-999.0,93,-99.99,,,-99.99,,2013-03-05 04:41:00,
2013-03-04 20:51:00,48.0,48.0,30.03,North,0,0.0,-999.0,100,-99.99,,,-99.99,,2013-03-05 04:51:00,
2013-03-04 21:01:00,48.0,48.0,30.03,North,0,0.0,-999.0,100,-99.99,,,-99.99,,2013-03-05 05:01:00,
2013-03-04 21:11:00,48.0,46.0,30.03,North,0,0.0,-999.0,93,-99.99,,,-99.99,,2013-03-05 05:11:00,
2013-03-04 21:22:00,48.0,46.0,30.03,North,0,0.0,-999.0,93,-99.99,,,-99.99,,2013-03-05 05:22:00,
2013-03-04 21:31:00,48.0,45.0,30.03,North,0,0.0,-999.0,87,-99.99,,,-99.99,,2013-03-05 05:31:00,
2013-03-04 21:41:00,48.0,45.0,30.03,North,0,0.0,-999.0,87,-99.99,,,-99.99,,2013-03-05 05:41:00,
2013-03-04 21:51:00,46.0,45.0,30.03,SE,130,6.0,-999.0,93,-99.99,,,-99.99,,2013-03-05 05:51:00,
2013-03-04 22:01:00,46.0,45.0,30.03,SE,130,6.0,-999.0,93,-99.99,,,-99.99,,2013-03-05 06:01:00,
2013-03-04 22:11:00,46.0,45.0,30.03,SE,140,6.0,-999.0,93,-99.99,,,-99.99,,2013-03-05 06:11:00,
2013-03-04 22:21:00,46.0,45.0,30.03,SSE,160,7.0,-999.0,93,-99.99,,,-99.99,,2013-03-05 06:21:00,
2013-03-04 22:31:00,46.0,45.0,30.04,SSE,150,6.0,-999.0,93,-99.99,,,-99.99,,2013-03-05 06:31:00,
2013-03-04 22:41:00,46.0,45.0,30.04,SSE,160,7.0,-999.0,93,-99.99,,,-99.99,,2013-03-05 06:41:00,
2013-03-04 22:52:00,46.0,43.0,30.03,North,0,0.0,-999.0,87,-99.99,,,-99.99,,2013-03-05 06:52:00,
2013-03-04 23:01:00,46.0,43.0,30.03,North,0,0.0,-999.0,87,-99.99,,,-99.99,,2013-03-05 07:01:00,
2013-03-04 23:11:00,46.0,43.0,30.03,ESE,120,6.0,-999.0,87,-99.99,,,-99.99,,2013-03-05 07:11:00,
2013-03-04 23:21:00,45.0,43.0,30.03,SE,130,3.0,-999.0,93,-99.99,,,-99.99,,2013-03-05 07:21:00,
2013-03-04 23:31:00,45.0,43.0,30.03,North,0,0.0,-999.0,93,-99.99,,,-99.99,,2013-03-05 07:31:00,
2013-03-04 23:41:00,45.0,43.0,30.03,ESE,120,7.0,-999.0,93,-99.99,,,-99.99,,2013-03-05 07:41:00,
2013-03-04 23:51:00,45.0,43.0,30.03,SE,130,5.0,-999.0,93,-99.99,,,-99.99,,2013-03-05 07:51:00,